Time;durP1;ratioP1;P1;durP2;ratioP2;P2;SDS_P1;SDS_P2;PMS_P1;PMS_P2;Temp;Humidity;BMP_temperature;BMP_pressure;BME280_temperature;BME280_humidity;BME280_pressure;Samples;Min_cycle;Max_cycle;Signal;HPM_P1;HPM_P2
2021/09/04 00:00:58;;;;;;;4.80;1.80;;;16.90;73.60;;;;;;4914058;28;96031;-61
2021/09/04 00:03:29;;;;;;;5.32;1.90;;;16.90;73.50;;;;;;4920472;28;95752;-63
2021/09/04 00:06:03;;;;;;;1.75;1.38;;;16.90;73.50;;;;;;4927205;28;96283;-63
2021/09/04 00:08:35;;;;;;;3.15;1.58;;;16.90;73.40;;;;;;4927437;28;95899;-63
2021/09/04 00:11:08;;;;;;;2.60;1.55;;;16.90;73.30;;;;;;4919452;28;96773;-62
2021/09/04 00:13:42;;;;;;;5.13;2.00;;;16.90;73.30;;;;;;4916098;28;95450;-63
2021/09/04 00:16:16;;;;;;;3.10;1.70;;;16.90;73.30;;;;;;4913848;28;95979;-63
2021/09/04 00:18:47;;;;;;;;;;;16.90;73.20;;;;;;4923958;28;95387;-62
2021/09/04 00:21:17;;;;;;;4.32;1.88;;;16.90;73.10;;;;;;4924731;28;96412;-62
2021/09/04 00:23:47;;;;;;;3.30;1.60;;;16.90;73.10;;;;;;4921459;28;96586;-62
2021/09/04 00:26:18;;;;;;;4.57;1.90;;;16.90;73.00;;;;;;4923512;28;96724;-62
2021/09/04 00:28:48;;;;;;;2.85;1.80;;;16.90;72.90;;;;;;4920447;28;97950;-62
2021/09/04 00:31:18;;;;;;;6.38;2.00;;;16.90;72.80;;;;;;4933490;28;95689;-62
2021/09/04 00:33:51;;;;;;;3.03;1.83;;;16.90;72.80;;;;;;4924470;28;95352;-62
2021/09/04 00:36:22;;;;;;;4.35;2.10;;;16.90;72.70;;;;;;4917731;28;95910;-63
2021/09/04 00:38:52;;;;;;;4.43;1.48;;;16.90;72.60;;;;;;4927925;28;96435;-63
2021/09/04 00:41:24;;;;;;;5.07;2.28;;;16.90;72.60;;;;;;4918841;28;95758;-63
2021/09/04 00:43:55;;;;;;;1.85;1.27;;;16.90;72.60;;;;;;4922142;28;95941;-63
2021/09/04 00:46:25;;;;;;;4.50;1.50;;;16.90;72.50;;;;;;4916041;28;96462;-62
2021/09/04 00:48:57;;;;;;;4.00;1.85;;;16.90;72.50;;;;;;4925687;28;95816;-62
2021/09/04 00:51:28;;;;;;;4.20;1.67;;;16.90;72.50;;;;;;4924192;28;95703;-62
2021/09/04 00:53:59;;;;;;;5.78;1.95;;;16.90;72.50;;;;;;4926841;28;95244;-65
2021/09/04 00:56:31;;;;;;;5.40;1.58;;;16.90;72.50;;;;;;4935661;28;96930;-63
2021/09/04 00:59:09;;;;;;;;;;;16.90;72.40;;;;;;4915018;28;101010;-62
2021/09/04 01:01:41;;;;;;;3.45;1.58;;;16.90;72.50;;;;;;4918977;28;95886;-63
2021/09/04 01:04:13;;;;;;;3.90;1.90;;;16.90;72.60;;;;;;4923653;28;95730;-62
2021/09/04 01:06:46;;;;;;;4.93;1.85;;;16.90;72.60;;;;;;4925201;28;95843;-62
2021/09/04 01:09:18;;;;;;;3.92;2.00;;;16.90;72.50;;;;;;4923333;28;95781;-62
2021/09/04 01:11:48;;;;;;;3.25;1.85;;;16.90;72.50;;;;;;4920415;28;95778;-61
2021/09/04 01:14:21;;;;;;;4.55;2.25;;;16.90;72.50;;;;;;4920131;28;95447;-62
2021/09/04 01:16:52;;;;;;;5.53;1.70;;;16.90;72.40;;;;;;4912405;28;96509;-62
2021/09/04 01:19:23;;;;;;;4.95;1.85;;;16.90;72.50;;;;;;4916500;28;95488;-61
2021/09/04 01:21:55;;;;;;;3.67;1.70;;;16.90;73.10;;;;;;4913495;28;95316;-63
2021/09/04 01:24:26;;;;;;;5.75;1.80;;;16.90;72.50;;;;;;4913942;28;95390;-63
2021/09/04 01:26:56;;;;;;;4.10;1.70;;;16.90;72.40;;;;;;4920011;28;98853;-62
2021/09/04 01:29:26;;;;;;;5.03;2.08;;;16.90;72.70;;;;;;4920374;28;97644;-62
2021/09/04 01:31:56;;;;;;;6.32;1.88;;;16.90;72.40;;;;;;4917789;28;97998;-62
2021/09/04 01:34:26;;;;;;;3.03;1.33;;;16.90;72.50;;;;;;4924501;28;95659;-60
2021/09/04 01:36:56;;;;;;;4.35;1.60;;;16.90;72.50;;;;;;4913459;28;95792;-63
2021/09/04 01:39:29;;;;;;;9.07;2.08;;;17.00;72.50;;;;;;4911963;28;96175;-63
2021/09/04 01:42:01;;;;;;;4.13;1.60;;;17.00;72.60;;;;;;4910591;28;95286;-63
2021/09/04 01:44:31;;;;;;;;;;;17.00;72.60;;;;;;4924342;28;95546;-62
2021/09/04 01:47:01;;;;;;;3.15;1.02;;;17.00;72.50;;;;;;4915609;28;95967;-62
2021/09/04 01:49:35;;;;;;;4.07;1.52;;;17.10;72.60;;;;;;4920802;28;95831;-62
2021/09/04 01:52:06;;;;;;;6.20;2.45;;;17.10;72.50;;;;;;4926897;28;95782;-63
2021/09/04 01:54:38;;;;;;;4.28;1.70;;;17.10;72.50;;;;;;4939366;28;96118;-65
2021/09/04 01:57:10;;;;;;;2.25;1.27;;;17.10;72.50;;;;;;4929385;28;96001;-63
2021/09/04 01:59:47;;;;;;;4.60;1.67;;;17.10;72.40;;;;;;4915635;28;95858;-62
2021/09/04 02:02:18;;;;;;;5.22;1.42;;;17.10;72.20;;;;;;4914297;28;100613;-64
2021/09/04 02:04:51;;;;;;;4.80;1.83;;;17.10;72.20;;;;;;4919178;28;95773;-63
2021/09/04 02:07:22;;;;;;;4.38;1.55;;;17.10;72.20;;;;;;4930178;28;95910;-63
2021/09/04 02:09:52;;;;;;;5.68;1.30;;;17.00;72.20;;;;;;4922686;28;96026;-62
2021/09/04 02:12:24;;;;;;;2.95;1.60;;;17.10;72.20;;;;;;4908957;28;95794;-63
2021/09/04 02:14:54;;;;;;;3.10;1.52;;;17.00;72.20;;;;;;4915398;28;96118;-64
2021/09/04 02:17:27;;;;;;;4.82;1.50;;;17.10;72.20;;;;;;4914053;28;96137;-64
2021/09/04 02:19:58;;;;;;;5.25;2.22;;;17.10;72.00;;;;;;4912644;28;95737;-63
2021/09/04 02:22:31;;;;;;;5.05;2.00;;;17.10;72.00;;;;;;4911745;28;95785;-64
2021/09/04 02:25:04;;;;;;;6.53;1.90;;;17.10;72.00;;;;;;4925189;28;95544;-64
2021/09/04 02:27:37;;;;;;;4.80;1.50;;;17.10;71.70;;;;;;4911857;28;95880;-64
2021/09/04 02:30:10;;;;;;;6.00;1.65;;;17.10;71.70;;;;;;4908720;28;95790;-63
2021/09/04 02:32:41;;;;;;;4.43;1.30;;;17.10;71.70;;;;;;4909374;28;95285;-63
2021/09/04 02:35:15;;;;;;;4.68;1.17;;;17.20;71.80;;;;;;4925374;28;95568;-64
2021/09/04 02:37:46;;;;;;;3.63;1.33;;;17.20;72.00;;;;;;4915131;28;96493;-63
2021/09/04 02:40:19;;;;;;;3.30;1.20;;;17.20;72.00;;;;;;4914602;28;95551;-67
2021/09/04 02:42:50;;;;;;;2.67;1.40;;;17.20;71.90;;;;;;4913491;28;95346;-63
2021/09/04 02:45:23;;;;;;;3.10;1.23;;;17.20;71.80;;;;;;4912978;28;97032;-63
2021/09/04 02:47:54;;;;;;;4.57;1.80;;;17.30;71.90;;;;;;4925849;28;106032;-64
2021/09/04 02:50:26;;;;;;;3.60;1.30;;;17.20;71.90;;;;;;4921914;28;96310;-63
2021/09/04 02:52:57;;;;;;;;;;;17.30;71.90;;;;;;4924937;28;96043;-64
2021/09/04 02:55:29;;;;;;;5.03;1.20;;;17.30;71.90;;;;;;4926465;28;95822;-63
2021/09/04 02:58:01;;;;;;;2.10;0.95;;;17.30;71.80;;;;;;4925887;28;98271;-64
2021/09/04 03:00:34;;;;;;;3.75;1.10;;;17.30;71.70;;;;;;4913851;28;96164;-64
2021/09/04 03:03:07;;;;;;;5.25;1.95;;;17.30;71.90;;;;;;4921875;28;95241;-64
2021/09/04 03:05:40;;;;;;;3.33;1.50;;;17.30;71.90;;;;;;4926646;28;95721;-67
2021/09/04 03:08:12;;;;;;;2.67;1.20;;;17.30;71.90;;;;;;4922333;28;95854;-64
2021/09/04 03:10:45;;;;;;;5.03;1.65;;;17.30;72.10;;;;;;4922600;28;95749;-61
2021/09/04 03:13:18;;;;;;;4.25;1.45;;;17.40;71.90;;;;;;4922516;28;95708;-63
2021/09/04 03:15:50;;;;;;;8.38;2.15;;;17.40;71.80;;;;;;4915820;28;95719;-63
2021/09/04 03:18:24;;;;;;;5.45;2.08;;;17.40;71.80;;;;;;4917776;28;96087;-64
2021/09/04 03:20:56;;;;;;;4.97;1.35;;;17.40;71.60;;;;;;4926761;28;95986;-64
2021/09/04 03:23:29;;;;;;;5.93;1.67;;;17.40;71.40;;;;;;4919362;28;95302;-63
2021/09/04 03:26:01;;;;;;;5.80;1.42;;;17.40;71.40;;;;;;4917944;28;97809;-64
2021/09/04 03:28:32;;;;;;;10.88;1.50;;;17.40;71.20;;;;;;4923707;28;95938;-64
2021/09/04 03:31:02;;;;;;;6.57;1.90;;;17.40;71.20;;;;;;4915814;28;95516;-65
2021/09/04 03:33:32;;;;;;;3.67;1.30;;;17.40;71.00;;;;;;4922720;28;95357;-64
2021/09/04 03:36:03;;;;;;;7.40;1.60;;;17.40;71.00;;;;;;4930081;28;95403;-63
2021/09/04 03:38:34;;;;;;;4.68;1.75;;;17.40;70.90;;;;;;4924959;28;95782;-64
2021/09/04 03:41:07;;;;;;;3.25;1.80;;;17.40;70.80;;;;;;4922821;28;95684;-65
2021/09/04 03:43:42;;;;;;;4.63;1.65;;;17.40;70.60;;;;;;4926616;28;95621;-63
2021/09/04 03:46:13;;;;;;;7.45;1.95;;;17.40;70.60;;;;;;4923240;28;100699;-64
2021/09/04 03:48:44;;;;;;;7.00;1.70;;;17.40;70.50;;;;;;4925083;28;96739;-62
2021/09/04 03:51:15;;;;;;;4.15;1.38;;;17.40;70.40;;;;;;4925630;28;95341;-65
2021/09/04 03:53:47;;;;;;;5.63;1.55;;;17.40;70.30;;;;;;4930626;28;95944;-64
2021/09/04 03:56:18;;;;;;;7.65;1.92;;;17.40;70.40;;;;;;4924650;28;95724;-63
2021/09/04 03:58:53;;;;;;;6.03;1.90;;;17.40;70.30;;;;;;4921437;28;100019;-64
2021/09/04 04:01:24;;;;;;;5.35;1.80;;;17.40;70.30;;;;;;4914511;28;98300;-61
2021/09/04 04:03:57;;;;;;;2.70;1.33;;;17.40;70.10;;;;;;4917167;28;95238;-64
2021/09/04 04:06:29;;;;;;;5.18;1.50;;;17.40;70.20;;;;;;4923392;28;95774;-64
2021/09/04 04:09:02;;;;;;;4.38;1.33;;;17.40;70.20;;;;;;4932629;28;96283;-61
2021/09/04 04:11:32;;;;;;;3.95;1.70;;;17.40;70.10;;;;;;4931284;28;95268;-65
2021/09/04 04:14:02;;;;;;;7.18;1.98;;;17.40;70.10;;;;;;4918138;28;97809;-66
2021/09/04 04:16:33;;;;;;;4.18;1.85;;;17.30;70.00;;;;;;4913513;28;96026;-65
2021/09/04 04:19:05;;;;;;;6.25;1.75;;;17.30;70.10;;;;;;4916251;28;95842;-65
2021/09/04 04:21:37;;;;;;;10.23;2.83;;;17.30;69.90;;;;;;4904325;28;96226;-65
2021/09/04 04:24:10;;;;;;;3.80;1.50;;;17.30;70.10;;;;;;4933177;28;95708;-63
2021/09/04 04:26:40;;;;;;;5.72;1.73;;;17.30;70.30;;;;;;4916930;28;96514;-62
2021/09/04 04:29:12;;;;;;;4.15;2.05;;;17.40;70.50;;;;;;4907027;28;98185;-63
2021/09/04 04:31:46;;;;;;;6.25;1.98;;;17.50;70.60;;;;;;4916935;28;95773;-65
2021/09/04 04:34:17;;;;;;;5.93;1.85;;;17.50;70.60;;;;;;4926629;28;95659;-66
2021/09/04 04:36:50;;;;;;;6.57;1.55;;;17.60;70.40;;;;;;4924924;28;95893;-65
2021/09/04 04:39:20;;;;;;;3.60;1.80;;;17.60;70.20;;;;;;4922675;28;95849;-65
2021/09/04 04:41:50;;;;;;;3.90;2.13;;;17.70;70.00;;;;;;4923134;28;95807;-66
2021/09/04 04:44:22;;;;;;;6.43;2.38;;;17.70;70.00;;;;;;4922529;28;96098;-63
2021/09/04 04:46:53;;;;;;;;;;;17.70;69.90;;;;;;4921515;28;95328;-63
2021/09/04 04:49:24;;;;;;;8.32;2.80;;;17.70;69.90;;;;;;4929814;28;96627;-63
2021/09/04 04:51:57;;;;;;;4.32;2.05;;;17.70;69.90;;;;;;4932022;28;95363;-63
2021/09/04 04:54:28;;;;;;;2.65;1.92;;;17.80;69.90;;;;;;4931461;28;95737;-63
2021/09/04 04:57:01;;;;;;;5.53;1.80;;;17.80;70.10;;;;;;4942395;28;96048;-66
2021/09/04 04:59:32;;;;;;;11.90;2.58;;;17.90;70.30;;;;;;4913187;28;98371;-65
2021/09/04 05:02:04;;;;;;;5.60;2.05;;;17.90;70.10;;;;;;4920148;28;96144;-67
2021/09/04 05:04:36;;;;;;;10.07;2.33;;;17.90;69.80;;;;;;4924750;28;96116;-63
2021/09/04 05:07:07;;;;;;;5.65;2.03;;;17.90;69.70;;;;;;4923854;28;95713;-65
2021/09/04 05:09:38;;;;;;;7.80;2.33;;;17.90;69.60;;;;;;4925018;28;97239;-63
2021/09/04 05:12:10;;;;;;;6.80;1.80;;;18.00;69.90;;;;;;4923914;28;97375;-63
2021/09/04 05:14:40;;;;;;;5.37;2.90;;;18.00;69.50;;;;;;4922938;28;96067;-63
2021/09/04 05:17:12;;;;;;;4.57;1.77;;;18.00;69.40;;;;;;4918225;28;96544;-63
2021/09/04 05:19:43;;;;;;;5.15;2.38;;;18.00;69.40;;;;;;4925117;28;97048;-65
2021/09/04 05:22:14;;;;;;;5.53;2.00;;;18.00;69.10;;;;;;4916339;28;98288;-63
2021/09/04 05:24:47;;;;;;;6.63;2.00;;;18.00;69.10;;;;;;4925046;28;96099;-64
2021/09/04 05:27:17;;;;;;;4.82;1.73;;;18.10;69.80;;;;;;4924678;28;96281;-65
2021/09/04 05:29:50;;;;;;;3.38;1.90;;;18.10;69.10;;;;;;4923861;28;95898;-64
2021/09/04 05:32:23;;;;;;;5.03;2.25;;;18.10;69.10;;;;;;4913691;28;96448;-64
2021/09/04 05:34:54;;;;;;;4.05;2.00;;;18.10;69.10;;;;;;4921477;28;95986;-61
2021/09/04 05:37:25;;;;;;;4.45;2.42;;;18.10;69.10;;;;;;4923242;28;95340;-61
2021/09/04 05:39:55;;;;;;;4.97;2.33;;;18.20;69.10;;;;;;4924208;28;95738;-62
2021/09/04 05:42:26;;;;;;;5.57;3.00;;;18.10;69.00;;;;;;4924201;28;96559;-62
2021/09/04 05:44:57;;;;;;;5.38;2.10;;;18.20;69.00;;;;;;4923496;28;95966;-62
2021/09/04 05:47:31;;;;;;;5.88;2.75;;;18.20;69.10;;;;;;4919003;28;95878;-62
2021/09/04 05:50:04;;;;;;;7.63;2.75;;;18.20;69.10;;;;;;4922251;28;95942;-64
2021/09/04 05:52:35;;;;;;;7.00;2.80;;;18.20;69.30;;;;;;4921835;28;96065;-63
2021/09/04 05:55:07;;;;;;;8.20;3.58;;;18.20;69.40;;;;;;4924053;28;95957;-63
2021/09/04 05:57:39;;;;;;;7.85;3.67;;;18.20;69.50;;;;;;4950158;28;96682;-63
2021/09/04 06:00:12;;;;;;;8.05;4.15;;;18.20;69.70;;;;;;4914818;28;98700;-61
2021/09/04 06:02:43;;;;;;;7.03;3.17;;;18.20;69.60;;;;;;4922749;28;95818;-61
2021/09/04 06:05:14;;;;;;;8.68;3.92;;;18.20;69.80;;;;;;4918227;28;95928;-62
2021/09/04 06:07:45;;;;;;;7.82;4.13;;;18.20;69.80;;;;;;4918955;28;95783;-62
2021/09/04 06:10:15;;;;;;;6.93;3.33;;;18.30;69.70;;;;;;4917317;28;96084;-62
2021/09/04 06:12:45;;;;;;;6.72;3.67;;;18.20;69.70;;;;;;4921268;28;95801;-63
2021/09/04 06:15:15;;;;;;;7.70;3.67;;;18.30;69.70;;;;;;4913655;28;95876;-63
2021/09/04 06:17:47;;;;;;;10.70;3.50;;;18.30;69.70;;;;;;4921204;28;96501;-62
2021/09/04 06:20:18;;;;;;;6.35;3.65;;;18.30;69.60;;;;;;4921095;28;96967;-60
2021/09/04 06:22:49;;;;;;;5.60;3.08;;;18.30;69.70;;;;;;4917448;28;96253;-61
2021/09/04 06:25:19;;;;;;;;;;;18.30;69.80;;;;;;4920478;28;95605;-61
2021/09/04 06:27:49;;;;;;;8.40;3.42;;;18.30;69.70;;;;;;4922437;28;96605;-61
2021/09/04 06:30:19;;;;;;;7.03;4.18;;;18.30;69.70;;;;;;4917584;28;96014;-61
2021/09/04 06:32:49;;;;;;;4.95;3.00;;;18.30;69.60;;;;;;4919110;28;96746;-62
2021/09/04 06:35:20;;;;;;;5.63;3.27;;;18.30;69.70;;;;;;4920430;28;95818;-62
2021/09/04 06:37:51;;;;;;;6.70;3.28;;;18.40;69.70;;;;;;4917594;28;96299;-61
2021/09/04 06:40:21;;;;;;;5.77;2.70;;;18.40;69.80;;;;;;4910069;28;96497;-62
2021/09/04 06:42:53;;;;;;;6.68;3.15;;;18.30;69.80;;;;;;4915781;28;95856;-61
2021/09/04 06:45:23;;;;;;;;;;;18.30;70.00;;;;;;4918837;28;98155;-62
2021/09/04 06:47:53;;;;;;;7.80;3.65;;;18.30;69.90;;;;;;4912014;28;95683;-62
2021/09/04 06:50:25;;;;;;;;;;;18.30;70.00;;;;;;4919551;28;96411;-62
2021/09/04 06:52:56;;;;;;;5.53;3.20;;;18.30;70.10;;;;;;4930986;28;95380;-61
2021/09/04 06:55:28;;;;;;;5.22;2.90;;;18.20;70.10;;;;;;4922530;28;95307;-62
2021/09/04 06:57:59;;;;;;;;;;;18.30;70.20;;;;;;4922575;28;95899;-62
2021/09/04 07:00:30;;;;;;;7.28;2.97;;;18.20;70.20;;;;;;4916050;28;95952;-63
2021/09/04 07:03:02;;;;;;;10.35;3.55;;;18.20;70.30;;;;;;4910481;28;95809;-62
2021/09/04 07:05:32;;;;;;;9.20;3.30;;;18.20;70.60;;;;;;4919351;28;95848;-62
2021/09/04 07:08:04;;;;;;;7.15;3.30;;;18.20;70.60;;;;;;4910730;28;95585;-62
2021/09/04 07:10:35;;;;;;;;;;;18.20;70.60;;;;;;4910262;28;96486;-61
2021/09/04 07:13:05;;;;;;;7.63;3.00;;;18.20;70.70;;;;;;4910449;28;96040;-62
2021/09/04 07:15:36;;;;;;;7.95;2.67;;;18.20;70.60;;;;;;4908573;28;95601;-62
2021/09/04 07:18:08;;;;;;;4.25;2.78;;;18.20;70.80;;;;;;4911753;28;95659;-61
2021/09/04 07:20:43;;;;;;;5.15;2.50;;;18.20;70.80;;;;;;4910105;28;95982;-61
2021/09/04 07:23:13;;;;;;;6.60;3.00;;;18.20;70.80;;;;;;4916271;28;98161;-61
2021/09/04 07:25:45;;;;;;;4.93;2.45;;;18.20;71.00;;;;;;4929544;28;95919;-61
2021/09/04 07:28:15;;;;;;;8.68;3.50;;;18.20;71.40;;;;;;4917605;28;95675;-61
2021/09/04 07:30:45;;;;;;;10.20;3.03;;;18.20;71.30;;;;;;4910197;28;97219;-61
2021/09/04 07:33:15;;;;;;;13.35;3.85;;;18.20;71.60;;;;;;4913293;28;95821;-60
2021/09/04 07:35:46;;;;;;;4.80;2.45;;;18.20;71.60;;;;;;4914040;28;95800;-61
2021/09/04 07:38:16;;;;;;;6.53;2.90;;;18.20;71.70;;;;;;4916912;28;96141;-61
2021/09/04 07:40:46;;;;;;;5.82;2.63;;;18.20;71.70;;;;;;4931428;28;95735;-61
2021/09/04 07:43:17;;;;;;;4.93;2.35;;;18.20;71.80;;;;;;4915111;28;95323;-61
2021/09/04 07:45:48;;;;;;;6.97;2.92;;;18.20;71.80;;;;;;4908826;28;95701;-62
2021/09/04 07:48:19;;;;;;;5.07;2.17;;;18.20;71.80;;;;;;4912951;28;95980;-61
2021/09/04 07:50:51;;;;;;;6.28;2.60;;;18.20;71.60;;;;;;4912619;28;96819;-62
2021/09/04 07:53:22;;;;;;;5.95;3.10;;;18.20;71.70;;;;;;4918979;28;95589;-63
2021/09/04 07:55:53;;;;;;;4.13;2.70;;;18.20;71.70;;;;;;4925393;28;96182;-64
2021/09/04 07:58:24;;;;;;;5.85;3.03;;;18.20;71.80;;;;;;4909992;28;95868;-63
2021/09/04 08:00:55;;;;;;;4.57;2.50;;;18.20;72.00;;;;;;4919354;28;95916;-61
2021/09/04 08:03:26;;;;;;;5.30;2.15;;;18.20;72.10;;;;;;4923645;28;95685;-61
2021/09/04 08:05:57;;;;;;;4.23;2.10;;;18.20;72.10;;;;;;4919215;28;95723;-60
2021/09/04 08:08:27;;;;;;;7.25;2.97;;;18.20;72.10;;;;;;4921096;28;95630;-62
2021/09/04 08:10:58;;;;;;;7.55;2.40;;;18.20;71.80;;;;;;4916478;28;95902;-61
2021/09/04 08:13:32;;;;;;;5.88;2.50;;;18.20;71.90;;;;;;4914780;28;95482;-60
2021/09/04 08:16:03;;;;;;;4.20;2.10;;;18.20;71.90;;;;;;4915742;28;95628;-61
2021/09/04 08:18:35;;;;;;;6.13;2.90;;;18.20;71.90;;;;;;4910922;28;95990;-61
2021/09/04 08:21:07;;;;;;;8.52;2.50;;;18.20;72.00;;;;;;4916292;28;95877;-62
2021/09/04 08:23:38;;;;;;;4.97;2.40;;;18.20;72.00;;;;;;4913633;28;95631;-60
2021/09/04 08:26:07;;;;;;;6.05;2.20;;;18.20;71.90;;;;;;4920370;28;95935;-61
2021/09/04 08:28:38;;;;;;;5.25;2.00;;;18.10;71.80;;;;;;4915088;28;95969;-60
2021/09/04 08:31:10;;;;;;;4.85;2.03;;;18.20;71.70;;;;;;4922886;28;96676;-60
2021/09/04 08:33:40;;;;;;;5.50;2.38;;;18.10;71.60;;;;;;4931101;28;96109;-62
2021/09/04 08:36:12;;;;;;;2.88;2.17;;;18.10;71.60;;;;;;4940973;28;95307;-62
2021/09/04 08:38:42;;;;;;;4.68;2.15;;;18.10;71.50;;;;;;4937938;28;95936;-61
2021/09/04 08:41:13;;;;;;;2.75;1.92;;;18.10;71.40;;;;;;4930919;28;96376;-62
2021/09/04 08:43:46;;;;;;;3.80;2.03;;;18.10;72.20;;;;;;4946065;28;95288;-62
2021/09/04 08:46:17;;;;;;;5.32;2.17;;;18.10;71.50;;;;;;4931213;28;95695;-62
2021/09/04 08:48:49;;;;;;;5.90;1.77;;;18.00;71.60;;;;;;4931587;28;95731;-62
2021/09/04 08:51:20;;;;;;;4.63;2.15;;;18.10;71.60;;;;;;4936873;28;96587;-60
2021/09/04 08:53:51;;;;;;;6.27;2.20;;;18.10;71.60;;;;;;4937584;28;95814;-60
2021/09/04 08:56:22;;;;;;;3.28;1.63;;;18.00;71.70;;;;;;4938276;28;95282;-61
2021/09/04 08:58:52;;;;;;;9.45;3.03;;;18.00;71.90;;;;;;4938990;28;95409;-62
2021/09/04 09:01:27;;;;;;;3.88;1.60;;;18.00;72.00;;;;;;4932142;28;97239;-62
2021/09/04 09:04:06;;;;;;;8.88;2.55;;;18.00;72.10;;;;;;4939444;28;96105;-60
2021/09/04 09:06:38;;;;;;;3.08;1.92;;;18.00;72.20;;;;;;4942422;28;95631;-60
2021/09/04 09:09:24;;;;;;;4.32;1.95;;;18.00;72.30;;;;;;4932091;28;95586;-60
2021/09/04 09:11:58;;;;;;;5.28;2.33;;;18.00;72.30;;;;;;4931699;28;96883;-62
2021/09/04 09:14:31;;;;;;;6.03;2.33;;;18.00;72.20;;;;;;4931024;28;96255;-60
2021/09/04 09:17:02;;;;;;;6.60;2.13;;;18.00;72.30;;;;;;4940222;28;95689;-60
2021/09/04 09:19:40;;;;;;;4.63;2.60;;;18.00;72.40;;;;;;4950663;28;95790;-60
2021/09/04 09:22:16;;;;;;;4.45;2.15;;;17.90;72.30;;;;;;4952523;28;95723;-60
2021/09/04 09:24:47;;;;;;;3.25;1.65;;;17.90;72.30;;;;;;4929251;28;95561;-61
2021/09/04 09:27:21;;;;;;;6.40;2.90;;;17.90;72.30;;;;;;4932592;28;95744;-60
2021/09/04 09:29:51;;;;;;;3.92;1.55;;;17.90;72.30;;;;;;4941964;28;96240;-61
2021/09/04 09:32:22;;;;;;;5.15;2.35;;;17.80;72.30;;;;;;4947095;28;95992;-59
2021/09/04 09:34:54;;;;;;;;;;;17.80;72.30;;;;;;4936834;28;96095;-60
2021/09/04 09:37:25;;;;;;;5.63;2.33;;;17.80;72.30;;;;;;4938938;28;95732;-60
2021/09/04 09:40:00;;;;;;;5.57;2.35;;;17.80;72.30;;;;;;4935967;28;95922;-60
2021/09/04 09:42:36;;;;;;;8.23;2.70;;;17.70;72.20;;;;;;4932339;28;96505;-61
2021/09/04 09:45:07;;;;;;;3.13;2.17;;;17.80;72.30;;;;;;4941088;28;95872;-61
2021/09/04 09:47:51;;;;;;;2.92;1.83;;;17.80;72.30;;;;;;4938334;28;95833;-60
2021/09/04 09:50:23;;;;;;;6.60;2.50;;;17.80;72.30;;;;;;4934256;28;95769;-62
2021/09/04 09:52:55;;;;;;;2.38;2.15;;;17.80;72.30;;;;;;4939615;28;96394;-61
2021/09/04 09:55:27;;;;;;;5.38;2.20;;;17.80;72.30;;;;;;4939830;28;97444;-61
2021/09/04 09:57:59;;;;;;;6.32;2.13;;;17.80;72.30;;;;;;4927808;28;97427;-61
2021/09/04 10:00:31;;;;;;;4.68;2.00;;;17.80;72.30;;;;;;4923152;28;99932;-62
2021/09/04 10:03:06;;;;;;;3.47;1.85;;;17.70;72.20;;;;;;4930235;28;97422;-62
2021/09/04 10:05:39;;;;;;;5.55;2.25;;;17.70;72.30;;;;;;4930166;28;96468;-61
2021/09/04 10:08:16;;;;;;;5.53;1.70;;;17.70;72.30;;;;;;4935812;28;95907;-61
2021/09/04 10:10:47;;;;;;;4.45;2.10;;;17.70;72.50;;;;;;4936835;28;95740;-61
2021/09/04 10:13:19;;;;;;;4.65;2.10;;;17.70;72.50;;;;;;4935919;28;96616;-62
2021/09/04 10:15:55;;;;;;;3.78;1.48;;;17.60;72.40;;;;;;4928227;28;96150;-61
2021/09/04 10:18:27;;;;;;;5.20;2.13;;;17.60;72.40;;;;;;4936901;28;95912;-60
2021/09/04 10:21:14;;;;;;;4.32;2.17;;;17.60;72.40;;;;;;4934886;28;96026;-62
2021/09/04 10:23:52;;;;;;;5.28;2.03;;;17.60;72.40;;;;;;4931713;28;95883;-62
2021/09/04 10:26:36;;;;;;;4.68;2.38;;;17.60;72.40;;;;;;4934198;28;95726;-60
2021/09/04 10:29:12;;;;;;;5.30;1.95;;;17.50;72.50;;;;;;4938092;28;95652;-62
2021/09/04 10:32:01;;;;;;;3.30;1.63;;;17.50;72.40;;;;;;4928958;28;99372;-62
2021/09/04 10:34:40;;;;;;;6.55;2.10;;;17.50;72.30;;;;;;4937285;28;96021;-59
2021/09/04 10:37:14;;;;;;;5.43;1.98;;;17.50;72.40;;;;;;4941136;28;96160;-61
2021/09/04 10:40:00;;;;;;;3.38;1.77;;;17.40;72.40;;;;;;4934702;28;95686;-63
2021/09/04 10:42:32;;;;;;;4.63;1.95;;;17.40;72.40;;;;;;4932185;28;96114;-60
2021/09/04 10:45:08;;;;;;;6.43;2.53;;;17.30;72.30;;;;;;4929953;28;97820;-61
2021/09/04 10:47:52;;;;;;;4.72;1.80;;;17.30;72.40;;;;;;4931388;28;96122;-61
2021/09/04 10:50:35;;;;;;;3.22;2.00;;;17.30;72.30;;;;;;4931781;28;96131;-61
2021/09/04 10:53:07;;;;;;;3.38;1.50;;;17.20;72.20;;;;;;4939070;28;95751;-64
2021/09/04 10:55:41;;;;;;;3.38;1.70;;;17.20;72.20;;;;;;4935583;28;96706;-60
2021/09/04 10:58:18;;;;;;;4.10;1.70;;;17.10;72.20;;;;;;4933851;28;95871;-62
2021/09/04 11:00:49;;;;;;;3.67;1.80;;;17.10;72.20;;;;;;4926756;28;98630;-61
2021/09/04 11:03:21;;;;;;;;;;;17.10;72.10;;;;;;4936734;28;95739;-60
2021/09/04 11:05:56;;;;;;;2.78;1.42;;;17.00;72.00;;;;;;4942743;28;96110;-61
2021/09/04 11:08:44;;;;;;;2.55;1.55;;;17.00;72.10;;;;;;4934161;28;95690;-63
2021/09/04 11:11:36;;;;;;;3.13;1.70;;;17.00;72.10;;;;;;4936305;28;96272;-61
2021/09/04 11:14:21;;;;;;;3.78;1.73;;;16.90;72.20;;;;;;4936799;28;95848;-62
2021/09/04 11:16:54;;;;;;;2.00;1.25;;;16.90;72.20;;;;;;4931594;28;95938;-60
2021/09/04 11:19:28;;;;;;;4.25;1.67;;;16.80;72.10;;;;;;4951832;28;95824;-63
2021/09/04 11:22:06;;;;;;;3.40;1.63;;;16.80;72.00;;;;;;4934008;28;95570;-62
2021/09/04 11:24:39;;;;;;;3.58;1.33;;;16.80;72.10;;;;;;4933629;28;95822;-60
2021/09/04 11:27:19;;;;;;;2.83;1.55;;;16.80;72.10;;;;;;4932234;28;95933;-61
2021/09/04 11:29:54;;;;;;;2.80;1.40;;;16.70;72.20;;;;;;4932245;28;95714;-62
2021/09/04 11:32:29;;;;;;;2.17;1.23;;;16.70;72.00;;;;;;4943537;28;96099;-63
2021/09/04 11:35:02;;;;;;;3.20;1.20;;;16.70;72.00;;;;;;4951229;28;95629;-61
2021/09/04 11:37:39;;;;;;;2.08;1.00;;;16.60;71.90;;;;;;4936172;28;95854;-61
2021/09/04 11:40:18;;;;;;;3.35;1.60;;;16.60;72.00;;;;;;4937538;28;95828;-62
2021/09/04 11:42:50;;;;;;;1.35;0.90;;;16.70;72.10;;;;;;4942216;28;96175;-60
2021/09/04 11:45:23;;;;;;;2.03;1.40;;;16.60;72.00;;;;;;4945744;28;95756;-61
2021/09/04 11:47:54;;;;;;;3.35;1.23;;;16.60;72.00;;;;;;4935494;28;95900;-63
2021/09/04 11:50:29;;;;;;;2.30;0.93;;;16.60;72.20;;;;;;4933790;28;95904;-60
2021/09/04 11:53:12;;;;;;;1.77;1.30;;;16.60;72.20;;;;;;4936662;28;95841;-61
2021/09/04 11:55:43;;;;;;;1.45;1.00;;;16.50;72.20;;;;;;4939074;28;95744;-63
2021/09/04 11:58:14;;;;;;;1.17;1.00;;;16.50;72.10;;;;;;4936787;28;96109;-63
2021/09/04 12:00:45;;;;;;;2.13;1.27;;;16.50;72.20;;;;;;4933291;28;97385;-63
2021/09/04 12:03:36;;;;;;;2.95;1.23;;;16.40;72.10;;;;;;4933737;28;95874;-60
2021/09/04 12:06:09;;;;;;;2.40;1.10;;;16.50;72.80;;;;;;4935047;28;95463;-61
2021/09/04 12:08:41;;;;;;;;;;;16.40;72.10;;;;;;4936666;28;95835;-63
2021/09/04 12:11:13;;;;;;;1.05;0.95;;;16.40;72.10;;;;;;4936444;28;95899;-63
2021/09/04 12:13:44;;;;;;;1.88;0.98;;;16.40;72.00;;;;;;4930728;28;96297;-62
2021/09/04 12:16:19;;;;;;;1.50;0.77;;;16.30;72.00;;;;;;4928649;28;98878;-63
2021/09/04 12:18:51;;;;;;;1.65;1.00;;;16.30;72.00;;;;;;4936086;28;96564;-60
2021/09/04 12:21:30;;;;;;;1.67;1.20;;;16.30;71.90;;;;;;4936264;28;95739;-60
2021/09/04 12:24:04;;;;;;;2.88;1.30;;;16.20;71.90;;;;;;4932836;28;95659;-60
2021/09/04 12:26:52;;;;;;;1.05;0.85;;;16.20;71.80;;;;;;4934771;28;95413;-61
2021/09/04 12:29:28;;;;;;;1.30;0.98;;;16.20;71.90;;;;;;4932725;28;96258;-61
2021/09/04 12:32:11;;;;;;;2.00;0.98;;;16.20;72.60;;;;;;4932117;28;97937;-63
2021/09/04 12:34:56;;;;;;;1.20;0.80;;;16.20;71.90;;;;;;4943375;28;95406;-63
2021/09/04 12:37:29;;;;;;;1.10;0.90;;;16.20;71.90;;;;;;4935284;28;95449;-63
2021/09/04 12:40:13;;;;;;;1.40;0.73;;;16.10;72.00;;;;;;4936232;28;95824;-60
2021/09/04 12:42:59;;;;;;;1.85;0.90;;;16.10;72.00;;;;;;4932364;28;95747;-63
2021/09/04 12:45:30;;;;;;;1.70;0.90;;;16.10;72.00;;;;;;4927372;28;95433;-63
2021/09/04 12:48:01;;;;;;;1.70;0.70;;;16.00;71.90;;;;;;4933446;28;95281;-59
2021/09/04 12:50:34;;;;;;;1.90;0.88;;;16.00;71.90;;;;;;4933280;28;96809;-63
2021/09/04 12:53:06;;;;;;;1.63;0.80;;;16.00;71.80;;;;;;4938280;28;95497;-60
2021/09/04 12:55:54;;;;;;;1.55;0.82;;;16.00;71.90;;;;;;4933299;28;95382;-60
2021/09/04 12:58:25;;;;;;;1.10;0.80;;;15.90;71.80;;;;;;4937158;28;95870;-60
2021/09/04 13:01:11;;;;;;;2.10;0.98;;;15.90;71.80;;;;;;4931212;28;95881;-58
2021/09/04 13:03:44;;;;;;;1.25;0.63;;;15.90;71.90;;;;;;4959397;28;96014;-59
2021/09/04 13:06:16;;;;;;;0.85;0.80;;;15.90;71.80;;;;;;4938670;28;95923;-63
2021/09/04 13:08:46;;;;;;;2.10;0.93;;;15.90;71.80;;;;;;4936740;28;95528;-60
2021/09/04 13:11:17;;;;;;;1.02;0.50;;;15.80;71.80;;;;;;4932836;28;95936;-63
2021/09/04 13:13:49;;;;;;;1.15;1.05;;;15.80;71.80;;;;;;4932701;28;96223;-64
2021/09/04 13:16:21;;;;;;;1.77;0.70;;;15.80;71.80;;;;;;4932942;28;95813;-60
2021/09/04 13:18:53;;;;;;;1.17;0.90;;;15.80;71.80;;;;;;4935482;28;96355;-61